Nina Rodrigues, Brazil
Current Conditions -  °F | °C
As of 6:00 AM on Tuesday 21 Oct 2014 (Local Time) from SBSL Reporting Station
Few Clouds Few Clouds  
Wind Chill: 81°   Ceiling: Unl
Heat Index: 84°   Visibility: 6mi
Dew Point: 70°   Wind: 12mph
Humidity: 70%   Direction: 60°ENE
Pressure: 29.83"   Gusts: NA
Location:  3.47°S, 43.9°W
Report Text: SBSL 210900Z 06010KT 9999 FEW017 27/21 Q1010
Loading
Personal Weather Stations






























Interactive Weather Map
Tropical Storm Tracking
New forecast layout! Learn more

10-Day Weather Forecast

Advertisements
Track Severe Weather on mobile